EEKA  Kärdla  Airport

Kärdla, Estonia

Add Bookmark
ICAO EEKA
Type Airport
Status Operational
Latitude
58° 59' 26" N
58.990799
Longitude
22° 49' 50" E
22.830700
Local (GMT +3 ) UTC
May 6, 2016 12:56 am May 5, 2016 21:56
Sunrise-Sunset Local UTC
Begin Civil Twilight 04:19 am 01:19
Sunrise 05:13 am 02:13
Sunset 09:36 pm 18:36
End Civil Twilight 10:30 pm 19:30
VFR
VFR
MVFR
MVFR
IFR
IFR
LIFR
LIFR
Unknown
Unavailable

Current Weather

METAR Observed VFR
EEKA 051350Z 32007KT CAVOK 16/03 Q1025 Thu, May 5, 2016 @ 13:50 UTC
(8 Hours, 6 Minutes ago)
Visual Flight Rules
Wind Visibility Conditions
320° at 7 knots (13 kph) 10 km or more
  • No significant weather
Temperatures Readings Precipitation
Current Temp
16°C
61°F
Dewpoint
3°C
37°F
Humidity 42%
Altimeter 30.27" Hg
Sea Level Pressure 1,025 mb
Field Elevation
4 m
13 ft
None Recorded

Additional weather within a 92.6km radius of EEKA

Map ICAO Location
EEEI 84.1km E/NE (069°)
VFR
VFR
MVFR
MVFR
IFR
IFR
LIFR
LIFR
Unknown
Unavailable
-
-

CheckWX.com is intended as a tool to help pilots better visualize weather data. It is not intended as a substitute for an official weather briefing obtained from a Flight Service Station. CheckWX.com does not meet the FAA requirements for an official pre-flight weather briefing. Therefore, it's important that pilots still call and obtain an official FSS pre-flight weather briefing.

© 2007-2016 CheckWX.com
21:56:24 UTC